CheckWX is a tool to help pilots better visualize weather data.  It is not intended as a substitute for an official pre-flight weather briefing.

11:04:40 UTC

PAFB TAF
Ladd AAF Airport
Fairbanks/Ft Wainwright, Alaska, USA
TAF COR PAFB 170755Z 1707/1813 28006KT 9999 BKN030 OVC040 QNH3016INS BECMG 1709/1710 VRB06KT 9000 BR BKN023 QNH3026INS BECMG 1712/1713 VRB06KT 8000 BR FEW016 QNH3033INS TX15/1800Z TN06/1714Z LAST NO AMDS AFT 1707 NEXT 1915

Aug-17@
07:00 UTC

Aug-17 @ 07:00 UTC

Aug-17@
09:00 UTC

Aug-17 @ 09:00 UTC

TAF COR PAFB 170755Z 1707/1813 28006KT 9999 BKN030 OVC040 QNH3016INS

Expired

Wind
  • 280° at 6 KTS
Cloud Levels
  • Broken at 3,000' AGL
  • Overcast at 4,000' AGL

Aug-17@
09:00 UTC

Aug-17 @ 09:00 UTC

Aug-17@
12:00 UTC

Aug-17 @ 12:00 UTC

BECMG 1709/1710 VRB06KT 9000 BR BKN023 QNH3026INS

Expired

Wind
  • Variable at 6 KTS
Conditions
Mist
Cloud Levels
  • Broken at 2,300' AGL

Aug-17@
12:00 UTC

Aug-17 @ 12:00 UTC

Aug-18@
13:00 UTC

Aug-18 @ 13:00 UTC

BECMG 1712/1713 VRB06KT 8000 BR FEW016 QNH3033INS TX15/1800Z TN06/1714Z LAST NO AMDS AFT 1707 NEXT 1915

Becoming

Becoming Conditions expected by Sat, Aug 17, 2019 @ 13:00 UTC

Wind
  • Variable at 6 KTS
Conditions
Mist
Cloud Levels
  • Few at 1,600' AGL